METAR Data
IDs: Format: Raw Decoded Include TAF

Data at: 1240 UTC 24 May 2022

EGBB 241220Z 31006KT 270V350 9999 FEW031CB SCT043 15/09 Q1006

EGBJ 241220Z 27011KT 9999 VCSH FEW025 FEW035CB 16/07 Q1006

EGVN 241220Z 32009KT 9999 VCSH FEW028CB SCT035 12/09 Q1006 RESHRA TEMPO 7000 SHRA RMK BLU TEMPO WHT

EGTK 241220Z 32007KT 270V350 9999 VCSH FEW016 SCT030CB 13/10 Q1006

EGWC 241150Z 29003KT 9999 VCSH FEW015 SCT025CB 13/08 Q1006 RMK BLU

EGTC 241220Z 28017KT 9999 SHRA SCT034CB BKN043 12/08 Q1006

EGNX 241220Z 28014KT 9999 SCT036 15/07 Q1005